createdAt,value
2022-10-17T00:01:41.541Z,710.4
2022-10-17T00:03:25.235Z,707.3
2022-10-17T00:05:08.954Z,706.7
2022-10-17T00:06:52.644Z,706.6
2022-10-17T00:08:36.363Z,708.5
2022-10-17T00:10:20.052Z,710.7
2022-10-17T00:12:03.783Z,713.2
2022-10-17T00:13:47.474Z,716.7
2022-10-17T00:15:31.167Z,714.9
2022-10-17T00:17:14.860Z,711
2022-10-17T00:18:58.565Z,712.7
2022-10-17T00:20:42.265Z,715.8
2022-10-17T00:22:25.969Z,717
2022-10-17T00:24:09.690Z,717.4
2022-10-17T00:25:53.394Z,717.1
2022-10-17T00:27:37.106Z,713.9
2022-10-17T00:29:20.784Z,715
2022-10-17T00:31:04.481Z,716
2022-10-17T00:32:48.182Z,716.7
2022-10-17T00:34:31.883Z,718.4
2022-10-17T00:36:15.631Z,718
2022-10-17T00:37:59.336Z,718.4
2022-10-17T00:39:43.045Z,718.6
2022-10-17T00:41:26.701Z,718.7
2022-10-17T00:43:10.402Z,717.4
2022-10-17T00:44:54.104Z,714.9
2022-10-17T00:46:37.802Z,714.4
2022-10-17T00:48:21.497Z,714.9
2022-10-17T00:50:05.207Z,714.3
2022-10-17T00:51:48.908Z,720.7
2022-10-17T00:53:32.611Z,728.4
2022-10-17T00:55:16.314Z,729.9
2022-10-17T00:57:00.070Z,727
2022-10-17T00:58:43.739Z,722.2
2022-10-17T01:00:27.434Z,723.8
2022-10-17T01:02:11.142Z,724.1
2022-10-17T01:03:54.833Z,725.3
2022-10-17T01:05:38.553Z,726.4
2022-10-17T01:07:22.231Z,726.7
2022-10-17T01:09:05.940Z,725.8
2022-10-17T01:10:49.685Z,726.5
2022-10-17T01:12:33.377Z,726.7
2022-10-17T01:14:17.072Z,729
2022-10-17T01:16:00.746Z,731.2
2022-10-17T01:17:44.455Z,735.7
2022-10-17T01:19:28.165Z,739.3
2022-10-17T01:21:11.857Z,744.9
2022-10-17T01:22:55.561Z,744.9
2022-10-17T01:24:39.256Z,744.5
2022-10-17T01:26:22.961Z,746.5
2022-10-17T01:28:06.675Z,749.8
2022-10-17T01:29:50.380Z,750.4
2022-10-17T01:31:34.116Z,751.2
2022-10-17T01:33:17.787Z,749.6
2022-10-17T01:35:01.475Z,750.6
2022-10-17T01:36:45.199Z,749.8
2022-10-17T01:38:28.895Z,749.7
2022-10-17T01:40:12.647Z,747.7
2022-10-17T01:41:56.333Z,749.3
2022-10-17T01:43:39.985Z,748.7
2022-10-17T01:45:23.751Z,742.6
2022-10-17T01:47:07.412Z,741.2
2022-10-17T01:48:51.110Z,741.6
2022-10-17T01:50:34.801Z,743.3
2022-10-17T01:52:18.501Z,745.4
2022-10-17T01:54:02.203Z,744.1
2022-10-17T01:55:45.923Z,743.4
2022-10-17T01:57:29.607Z,745.6
2022-10-17T01:59:13.321Z,749
2022-10-17T02:00:57.015Z,753.6
2022-10-17T02:02:40.727Z,756.2
2022-10-17T02:04:24.427Z,754.5
2022-10-17T02:06:08.136Z,751.7
2022-10-17T02:07:51.908Z,749.8
2022-10-17T02:09:35.522Z,750.3
2022-10-17T02:11:19.260Z,751.1
2022-10-17T02:13:02.931Z,754.4
2022-10-17T02:14:46.625Z,753.1
2022-10-17T02:16:30.333Z,752.5
2022-10-17T02:18:14.050Z,754.2
2022-10-17T02:19:57.728Z,750.5
2022-10-17T02:21:41.488Z,749.7
2022-10-17T02:23:25.147Z,750.2
2022-10-17T02:25:08.881Z,752.9
2022-10-17T02:26:52.551Z,754.8
2022-10-17T02:28:36.281Z,754.1
2022-10-17T02:30:19.983Z,759.3
2022-10-17T02:32:03.702Z,759.1
2022-10-17T02:33:47.353Z,758.1
2022-10-17T02:35:31.059Z,758.1
2022-10-17T02:37:14.796Z,756.4
2022-10-17T02:38:58.473Z,756.4
2022-10-17T02:40:42.184Z,757.1
2022-10-17T02:42:25.868Z,755.5
2022-10-17T02:45:53.284Z,762.9
2022-10-17T02:47:36.976Z,764.4
2022-10-17T02:49:20.743Z,759.7
2022-10-17T02:51:04.401Z,758
2022-10-17T02:52:48.108Z,760.9
2022-10-17T02:54:31.787Z,763.6
2022-10-17T02:56:15.486Z,755.9
2022-10-17T02:57:59.193Z,754.7
2022-10-17T02:59:42.895Z,757.7
2022-10-17T03:01:26.600Z,759.7
2022-10-17T03:03:10.301Z,760.6
2022-10-17T03:04:54.006Z,759.1
2022-10-17T03:06:37.701Z,758.2
2022-10-17T03:08:21.430Z,756.6
2022-10-17T03:10:05.108Z,767.5
2022-10-17T03:11:48.871Z,769.6
2022-10-17T03:13:32.521Z,769.9
2022-10-17T03:15:16.243Z,767.6
2022-10-17T03:16:59.919Z,766.5
2022-10-17T03:18:43.628Z,769.3
2022-10-17T03:20:27.317Z,769
2022-10-17T03:22:11.030Z,768.6
2022-10-17T03:23:54.733Z,765.3
2022-10-17T03:25:38.426Z,764.7
2022-10-17T03:27:22.137Z,765.5
2022-10-17T03:29:05.854Z,769
2022-10-17T03:30:49.542Z,771.4
2022-10-17T03:32:33.247Z,768.5
2022-10-17T03:34:16.969Z,768.4
2022-10-17T03:36:00.715Z,770.3
2022-10-17T03:37:44.349Z,768.9
2022-10-17T03:39:28.095Z,770.1
2022-10-17T03:41:11.798Z,768.2
2022-10-17T03:44:39.178Z,766.4
2022-10-17T03:46:22.867Z,764.6
2022-10-17T03:48:06.556Z,763.1
2022-10-17T03:49:50.296Z,770.9
2022-10-17T03:51:33.977Z,772.1
2022-10-17T03:53:17.773Z,769.9
2022-10-17T03:55:01.389Z,770.6
2022-10-17T03:56:45.121Z,772.9
2022-10-17T03:58:28.778Z,773.3
2022-10-17T04:00:12.493Z,776.6
2022-10-17T04:01:56.180Z,781.7
2022-10-17T04:03:39.888Z,784.8
2022-10-17T04:05:23.588Z,787
2022-10-17T04:07:07.326Z,783.9
2022-10-17T04:08:51.000Z,783.6
2022-10-17T04:10:34.701Z,783
2022-10-17T04:12:18.437Z,780
2022-10-17T04:14:02.144Z,783.7
2022-10-17T04:15:45.829Z,784.5
2022-10-17T04:17:29.507Z,785.1
2022-10-17T04:19:13.208Z,785.1
2022-10-17T04:20:56.911Z,783.8
2022-10-17T04:22:40.628Z,788.1
2022-10-17T04:24:24.411Z,789.6
2022-10-17T04:26:08.026Z,789.7
2022-10-17T04:27:51.727Z,787.9
2022-10-17T04:29:35.425Z,786.7
2022-10-17T04:31:19.135Z,786.9
2022-10-17T04:33:02.828Z,786.7
2022-10-17T04:34:46.575Z,787
2022-10-17T04:36:30.245Z,783.8
2022-10-17T04:38:13.944Z,784.1
2022-10-17T04:39:57.641Z,786.1
2022-10-17T04:41:41.338Z,789
2022-10-17T04:43:25.054Z,788.7
2022-10-17T04:45:08.740Z,789.5
2022-10-17T04:46:52.437Z,787.6
2022-10-17T04:48:36.141Z,786.9
2022-10-17T04:50:19.878Z,789.1
2022-10-17T04:52:03.686Z,787.7
2022-10-17T04:53:47.251Z,788.7
2022-10-17T04:55:30.957Z,791.4
2022-10-17T04:57:14.658Z,789.4
2022-10-17T04:58:58.363Z,790.4
2022-10-17T05:00:42.061Z,964.4
2022-10-17T05:02:25.772Z,1034.8
2022-10-17T05:04:09.469Z,968
2022-10-17T05:05:53.163Z,959.7
2022-10-17T05:07:36.867Z,1019.2
2022-10-17T05:09:20.576Z,995.8
2022-10-17T05:11:04.301Z,966.4
2022-10-17T05:12:47.977Z,958.3
2022-10-17T05:14:31.670Z,966.6
2022-10-17T05:16:15.389Z,972.6
2022-10-17T05:17:59.082Z,995.8
2022-10-17T05:19:42.799Z,1040.2
2022-10-17T05:21:26.485Z,1035.8
2022-10-17T05:23:10.193Z,1036.7
2022-10-17T05:24:53.897Z,1062.8
2022-10-17T05:26:37.600Z,1152.7
2022-10-17T05:28:21.304Z,1150.1
2022-10-17T05:30:05.023Z,1116.5
2022-10-17T05:31:48.735Z,1089.2
2022-10-17T05:33:32.406Z,1088.6
2022-10-17T05:35:16.114Z,1085.8
2022-10-17T05:36:59.859Z,1071.9
2022-10-17T05:38:43.514Z,1020.7
2022-10-17T05:40:27.232Z,1009.6
2022-10-17T05:42:10.935Z,1007.5
2022-10-17T05:43:54.626Z,1006.8
2022-10-17T05:45:38.360Z,1011.1
2022-10-17T05:47:22.025Z,1019.8
2022-10-17T05:49:05.749Z,1032.4
2022-10-17T05:50:49.571Z,1031.9
2022-10-17T05:52:33.248Z,1035.1
2022-10-17T05:54:16.960Z,1034.3
2022-10-17T05:56:00.607Z,1023.6
2022-10-17T05:57:44.315Z,1017.9
2022-10-17T05:59:27.971Z,1019.6
2022-10-17T06:01:11.647Z,1015.7
2022-10-17T06:02:55.452Z,1013.2
2022-10-17T06:04:39.074Z,1012.2
2022-10-17T06:06:22.752Z,1009.8
2022-10-17T06:08:06.518Z,1008.6
2022-10-17T06:09:50.178Z,1006.5
2022-10-17T06:11:33.864Z,1006.6
2022-10-17T06:13:17.594Z,1006.1
2022-10-17T06:15:01.377Z,1006.3
2022-10-17T06:16:45.006Z,1004.1
2022-10-17T06:18:28.712Z,1002.6
2022-10-17T06:20:12.442Z,1005.2
2022-10-17T06:21:56.091Z,1006.1
2022-10-17T06:25:23.551Z,997.4
2022-10-17T06:27:07.186Z,994.7
2022-10-17T06:28:50.920Z,998.6
2022-10-17T06:30:34.592Z,995.1
2022-10-17T06:32:18.347Z,991.5
2022-10-17T06:34:02.003Z,993.9
2022-10-17T06:35:45.696Z,992.6
2022-10-17T06:37:29.400Z,995
2022-10-17T06:39:13.114Z,1007.5
2022-10-17T06:40:56.812Z,1004.5
2022-10-17T06:42:40.559Z,1004.8
2022-10-17T06:44:24.241Z,1022.4
2022-10-17T06:46:07.919Z,1034.7
2022-10-17T06:47:51.645Z,1040.3
2022-10-17T06:49:35.330Z,1040.1
2022-10-17T06:51:19.152Z,1037.3
2022-10-17T06:53:02.758Z,1034.7
2022-10-17T06:54:46.453Z,1032
2022-10-17T06:56:30.133Z,1034.2
2022-10-17T06:58:13.831Z,1035.1
2022-10-17T06:59:57.561Z,1031
2022-10-17T07:01:41.258Z,1029
2022-10-17T07:03:24.938Z,1030.3
2022-10-17T07:05:08.705Z,1023.9
2022-10-17T07:06:52.419Z,1018.4
2022-10-17T07:08:36.049Z,1017.3
2022-10-17T07:10:19.769Z,1018.8
2022-10-17T07:12:03.469Z,1014.7
2022-10-17T07:13:47.185Z,1013.6
2022-10-17T07:15:30.874Z,1012.3
2022-10-17T07:17:14.555Z,1009.9
2022-10-17T07:18:58.353Z,1008.3
2022-10-17T07:20:42.035Z,1008.9
2022-10-17T07:22:25.689Z,1007
2022-10-17T07:24:09.364Z,1003.2
2022-10-17T07:25:53.073Z,1001.9
2022-10-17T07:27:36.832Z,999.9
2022-10-17T07:29:20.532Z,1000.6
2022-10-17T07:31:04.229Z,1000.7
2022-10-17T07:32:47.879Z,1000.5
2022-10-17T07:34:31.617Z,997.5
2022-10-17T07:36:15.341Z,997.3
2022-10-17T07:37:59.062Z,998
2022-10-17T07:39:42.706Z,994.5
2022-10-17T07:41:26.496Z,994.2
2022-10-17T07:43:10.081Z,996
2022-10-17T07:44:53.814Z,992.6
2022-10-17T07:46:37.523Z,988.6
2022-10-17T07:48:21.235Z,986.9
2022-10-17T07:50:04.915Z,1107.2
2022-10-17T07:51:48.624Z,1263.9
2022-10-17T07:53:32.311Z,1180.5
2022-10-17T07:55:16.016Z,1165
2022-10-17T07:56:59.708Z,1127.1
2022-10-17T07:58:43.456Z,1078.7
2022-10-17T08:00:27.118Z,1081.8
2022-10-17T08:02:10.897Z,1084.1
2022-10-17T08:03:54.531Z,1091.5
2022-10-17T08:05:38.220Z,1112.9
2022-10-17T08:07:22.003Z,1129.7
2022-10-17T08:09:05.643Z,1133.9
2022-10-17T08:10:49.332Z,1129.4
2022-10-17T08:12:33.084Z,1130.2
2022-10-17T08:14:16.752Z,1126.1
2022-10-17T08:16:00.469Z,1121.9
2022-10-17T08:17:44.179Z,1118.7
2022-10-17T08:19:27.846Z,1111.2
2022-10-17T08:21:11.549Z,1102.8
2022-10-17T08:22:55.288Z,1098.4
2022-10-17T08:24:38.968Z,1097
2022-10-17T08:26:22.657Z,1095.5
2022-10-17T08:28:06.348Z,1099
2022-10-17T08:29:50.109Z,1091.9
2022-10-17T08:31:33.766Z,1082.6
2022-10-17T08:33:17.456Z,1078.6
2022-10-17T08:35:01.210Z,1081.3
2022-10-17T08:36:44.887Z,1079.6
2022-10-17T08:38:28.566Z,1068
2022-10-17T08:40:12.276Z,1065
2022-10-17T08:41:55.964Z,1067.8
2022-10-17T08:43:39.680Z,1059.7
2022-10-17T08:45:23.382Z,1055.4
2022-10-17T08:47:07.079Z,1055.3
2022-10-17T08:48:50.774Z,1055
2022-10-17T08:50:34.489Z,1053.8
2022-10-17T08:52:18.186Z,1054.4
2022-10-17T08:54:01.891Z,1049.9
2022-10-17T08:55:45.613Z,1048.3
2022-10-17T08:57:29.301Z,1046.6
2022-10-17T08:59:12.999Z,1042.6
2022-10-17T09:00:56.702Z,1043
2022-10-17T09:02:40.399Z,1045.2
2022-10-17T09:04:24.103Z,1044.1
2022-10-17T09:06:07.804Z,1041.3
2022-10-17T09:07:51.608Z,1046.5
2022-10-17T09:09:35.206Z,1051.5
2022-10-17T09:11:18.905Z,1047.7
2022-10-17T09:13:02.610Z,1045.8
2022-10-17T09:14:46.406Z,1045.2
2022-10-17T09:16:30.016Z,1043.4
2022-10-17T09:18:13.741Z,1040.6
2022-10-17T09:19:57.427Z,1042.7
2022-10-17T09:21:41.123Z,1042.9
2022-10-17T09:23:24.892Z,1044.4
2022-10-17T09:25:08.582Z,1043.7
2022-10-17T09:26:52.306Z,1043.4
2022-10-17T09:28:35.949Z,1041.6
2022-10-17T09:30:19.631Z,1038
2022-10-17T09:32:03.335Z,1029.1
2022-10-17T09:33:47.048Z,969.1
2022-10-17T09:35:30.745Z,955.9
2022-10-17T09:37:14.443Z,961.4
2022-10-17T09:38:58.246Z,966.6
2022-10-17T09:40:42.011Z,969.8
2022-10-17T09:42:25.554Z,975
2022-10-17T09:44:09.401Z,976.1
2022-10-17T09:45:53.105Z,976.1
2022-10-17T09:47:36.813Z,979.8
2022-10-17T09:49:20.516Z,983.2
2022-10-17T09:51:04.209Z,985.6
2022-10-17T09:52:47.823Z,987.6
2022-10-17T09:54:31.472Z,989.9
2022-10-17T09:56:15.309Z,991.9
2022-10-17T09:57:59.015Z,992.9
2022-10-17T09:59:42.722Z,994.2
2022-10-17T10:01:26.421Z,998.1
2022-10-17T10:03:10.091Z,999.3
2022-10-17T10:04:53.811Z,998.6
2022-10-17T10:06:37.527Z,998.4
2022-10-17T10:08:21.249Z,999.5
2022-10-17T10:10:04.945Z,1061.2
2022-10-17T10:11:48.686Z,1186.1
2022-10-17T10:13:32.330Z,1230.8
2022-10-17T10:15:16.053Z,1233.9
2022-10-17T10:16:59.735Z,1218.5
2022-10-17T10:18:43.430Z,1186.8
2022-10-17T10:20:27.139Z,1174.8
2022-10-17T10:22:10.874Z,1161.1
2022-10-17T10:23:54.546Z,1150.3
2022-10-17T10:25:38.245Z,1187.4
2022-10-17T10:27:21.802Z,1194.6
2022-10-17T10:29:05.664Z,1198.1
2022-10-17T10:30:49.373Z,1192.8
2022-10-17T10:32:32.909Z,1179.4
2022-10-17T10:34:16.623Z,1173.8
2022-10-17T10:36:00.491Z,1171.5
2022-10-17T10:37:44.169Z,1171.8
2022-10-17T10:39:27.732Z,1171.6
2022-10-17T10:41:11.559Z,1172
2022-10-17T10:42:55.252Z,1170.5
2022-10-17T10:44:38.966Z,1165.2
2022-10-17T10:46:22.656Z,1160.9
2022-10-17T10:48:06.398Z,1158.3
2022-10-17T10:49:49.944Z,1157.2
2022-10-17T10:51:33.783Z,1156.9
2022-10-17T10:53:17.492Z,1156.1
2022-10-17T10:55:01.202Z,1149.5
2022-10-17T10:56:44.886Z,1145.9
2022-10-17T10:58:28.584Z,1143.6
2022-10-17T11:00:12.300Z,1140.2
2022-10-17T11:01:55.866Z,1140.7
2022-10-17T11:03:39.717Z,1138.2
2022-10-17T11:05:23.421Z,1138.5
2022-10-17T11:07:07.123Z,1141.7
2022-10-17T11:08:50.815Z,1143.2
2022-10-17T11:10:34.374Z,1143
2022-10-17T11:12:18.238Z,1139.6
2022-10-17T11:14:01.925Z,1138.7
2022-10-17T11:15:45.627Z,1138.3
2022-10-17T11:17:29.345Z,1138.7
2022-10-17T11:19:13.052Z,1139.2
2022-10-17T11:20:56.695Z,1139
2022-10-17T11:22:40.282Z,1139.5
2022-10-17T11:24:24.150Z,1134.8
2022-10-17T11:26:07.832Z,1127.8
2022-10-17T11:27:51.544Z,1122.6
2022-10-17T11:29:35.267Z,1125.5
2022-10-17T11:31:18.941Z,1127.9
2022-10-17T11:33:02.653Z,1125.5
2022-10-17T11:34:46.350Z,1127
2022-10-17T11:36:30.021Z,1122.5
2022-10-17T11:38:13.719Z,1121.7
2022-10-17T11:39:57.473Z,1116
2022-10-17T11:41:41.136Z,1110.4
2022-10-17T11:43:24.867Z,1108.2
2022-10-17T11:45:08.559Z,1107.3
2022-10-17T11:46:52.125Z,1101.2
2022-10-17T11:48:35.975Z,1097.9
2022-10-17T11:50:19.665Z,1093.8
2022-10-17T11:52:03.384Z,1091.1
2022-10-17T11:53:47.078Z,1088.2
2022-10-17T11:55:30.779Z,1089.8
2022-10-17T11:57:14.479Z,1090
2022-10-17T11:58:58.176Z,1087.6
2022-10-17T12:00:41.870Z,1083.6
2022-10-17T12:02:25.611Z,1085
2022-10-17T12:04:09.265Z,1085.5
2022-10-17T12:05:52.998Z,1079.8
2022-10-17T12:07:36.567Z,1078.1
2022-10-17T12:09:20.398Z,1074.8
2022-10-17T12:11:04.099Z,1072.9
2022-10-17T12:12:47.784Z,1074.9
2022-10-17T12:14:31.482Z,1073
2022-10-17T12:16:15.204Z,1070.2
2022-10-17T12:17:58.908Z,1067.2
2022-10-17T12:19:42.605Z,1068.3
2022-10-17T12:21:26.301Z,1068.1
2022-10-17T12:23:10.019Z,1062.2
2022-10-17T12:24:53.694Z,1062.5
2022-10-17T12:26:37.314Z,1059.3
2022-10-17T12:28:21.110Z,1054.3
2022-10-17T12:30:04.785Z,1055
2022-10-17T12:31:48.529Z,1048.2
2022-10-17T12:33:32.228Z,1045.4
2022-10-17T12:35:15.938Z,1043
2022-10-17T12:36:59.625Z,1042.3
2022-10-17T12:38:43.320Z,1041.2
2022-10-17T12:40:27.028Z,1042.6
2022-10-17T12:42:10.734Z,1044.1
2022-10-17T12:43:54.350Z,1045.1
2022-10-17T12:45:38.145Z,1039.7
2022-10-17T12:47:21.820Z,1037.9
2022-10-17T12:49:05.545Z,1035.8
2022-10-17T12:50:49.243Z,1035.7
2022-10-17T12:52:32.982Z,1033
2022-10-17T12:54:16.641Z,1027.3
2022-10-17T12:56:00.343Z,1028.2
2022-10-17T12:57:44.029Z,1026.8
2022-10-17T12:59:27.770Z,1022.1
2022-10-17T13:01:11.453Z,1019.6
2022-10-17T13:02:55.163Z,1017.4
2022-10-17T13:04:38.870Z,1015.6
2022-10-17T13:06:22.574Z,1014.4
2022-10-17T13:08:06.206Z,1009.6
2022-10-17T13:09:49.979Z,1006.5
2022-10-17T13:11:33.664Z,1006
2022-10-17T13:13:17.368Z,1006.9
2022-10-17T13:15:00.938Z,1007.5
2022-10-17T13:16:44.775Z,1009
2022-10-17T13:18:28.489Z,1007.3
2022-10-17T13:20:12.173Z,1004.9
2022-10-17T13:21:55.933Z,1001.3
2022-10-17T13:23:39.502Z,996.1
2022-10-17T13:25:23.297Z,997.1
2022-10-17T13:28:50.668Z,998.3
2022-10-17T13:30:34.402Z,997.2
2022-10-17T13:32:18.117Z,994.7
2022-10-17T13:34:01.658Z,990.1
2022-10-17T13:35:45.521Z,984.2
2022-10-17T13:37:29.223Z,981.1
2022-10-17T13:39:12.894Z,978
2022-10-17T13:40:56.596Z,976.9
2022-10-17T13:42:40.184Z,974.6
2022-10-17T13:44:24.024Z,975.4
2022-10-17T13:46:07.595Z,971.6
2022-10-17T13:49:35.101Z,965.1
2022-10-17T13:51:18.842Z,964.4
2022-10-17T13:53:02.536Z,965
2022-10-17T13:54:46.245Z,964.3
2022-10-17T13:56:29.961Z,961.9
2022-10-17T13:58:13.515Z,960.7
2022-10-17T13:59:57.216Z,958.1
2022-10-17T14:01:41.053Z,958.9
2022-10-17T14:03:24.746Z,959.8
2022-10-17T14:05:08.470Z,963.6
2022-10-17T14:06:52.119Z,964.4
2022-10-17T14:08:35.849Z,960.2
2022-10-17T14:10:19.577Z,957.9
2022-10-17T14:12:03.273Z,955.3
2022-10-17T14:13:46.974Z,954.4
2022-10-17T14:15:30.706Z,951.5
2022-10-17T14:17:14.245Z,951.4
2022-10-17T14:18:58.075Z,952.2
2022-10-17T14:20:41.795Z,945.3
2022-10-17T14:22:25.362Z,944.3
2022-10-17T14:24:09.121Z,940.8
2022-10-17T14:25:52.881Z,939.8
2022-10-17T14:27:36.454Z,942
2022-10-17T14:29:20.195Z,942.4
2022-10-17T14:31:03.874Z,941.6
2022-10-17T14:32:47.611Z,942.4
2022-10-17T14:34:31.273Z,942.3
2022-10-17T14:36:15.027Z,942.6
2022-10-17T14:37:58.665Z,942.4
2022-10-17T14:39:42.370Z,940.1
2022-10-17T14:41:26.074Z,938.7
2022-10-17T14:43:09.769Z,937.7
2022-10-17T14:44:53.476Z,934.1
2022-10-17T14:46:37.173Z,931
2022-10-17T14:48:20.879Z,930.1
2022-10-17T14:50:04.587Z,931.3
2022-10-17T14:51:48.283Z,928
2022-10-17T14:53:31.992Z,928.8
2022-10-17T14:55:15.686Z,930.6
2022-10-17T14:56:59.405Z,932.4
2022-10-17T14:58:43.091Z,931
2022-10-17T15:00:26.796Z,930
2022-10-17T15:02:10.503Z,925.9
2022-10-17T15:03:54.201Z,927.5
2022-10-17T15:05:37.905Z,925.6
2022-10-17T15:07:21.606Z,924
2022-10-17T15:09:05.312Z,916.5
2022-10-17T15:10:49.017Z,918.9
2022-10-17T15:12:32.809Z,918.1
2022-10-17T15:14:16.414Z,917.1
2022-10-17T15:16:00.134Z,914.6
2022-10-17T15:17:43.823Z,913.1
2022-10-17T15:19:27.528Z,912
2022-10-17T15:21:11.225Z,911.1
2022-10-17T15:22:54.927Z,908.7
2022-10-17T15:24:38.632Z,905.9
2022-10-17T15:26:22.341Z,901.1
2022-10-17T15:28:06.036Z,900.2
2022-10-17T15:29:49.739Z,896.1
2022-10-17T15:31:33.445Z,896.1
2022-10-17T15:33:17.138Z,896.1
2022-10-17T15:35:00.843Z,897
2022-10-17T15:36:44.577Z,896.2
2022-10-17T15:38:28.248Z,892.8
2022-10-17T15:40:11.956Z,889.8
2022-10-17T15:41:55.649Z,888.1
2022-10-17T15:43:39.359Z,888.3
2022-10-17T15:45:23.083Z,890.2
2022-10-17T15:47:06.770Z,886.4
2022-10-17T15:48:50.464Z,886.4
2022-10-17T15:50:34.162Z,884.7
2022-10-17T15:52:17.867Z,882.7
2022-10-17T15:54:01.677Z,878.5
2022-10-17T15:55:45.273Z,877.4
2022-10-17T15:57:28.976Z,874.9
2022-10-17T15:59:12.679Z,873.4
2022-10-17T16:00:56.409Z,869
2022-10-17T16:02:40.093Z,867.1
2022-10-17T16:04:23.785Z,864.2
2022-10-17T16:06:07.488Z,859.2
2022-10-17T16:07:51.199Z,858.7
2022-10-17T16:09:34.888Z,860.3
2022-10-17T16:11:18.594Z,857.8
2022-10-17T16:13:02.328Z,855.8
2022-10-17T16:14:46.006Z,854.8
2022-10-17T16:16:29.709Z,853.1
2022-10-17T16:18:13.409Z,850.2
2022-10-17T16:19:57.110Z,851.9
2022-10-17T16:21:40.825Z,850.9
2022-10-17T16:23:24.516Z,850.5
2022-10-17T16:25:08.217Z,847
2022-10-17T16:26:51.921Z,847.8
2022-10-17T16:28:35.622Z,850.1
2022-10-17T16:30:19.332Z,849.7
2022-10-17T16:32:03.024Z,856
2022-10-17T16:33:46.727Z,875.5
2022-10-17T16:35:30.434Z,881.9
2022-10-17T16:37:14.130Z,889.5
2022-10-17T16:38:57.839Z,893.6
2022-10-17T16:40:41.547Z,891.8
2022-10-17T16:42:25.243Z,885.5
2022-10-17T16:44:08.942Z,884
2022-10-17T16:45:52.644Z,883.4
2022-10-17T16:47:36.346Z,883.3
2022-10-17T16:49:20.054Z,881.6
2022-10-17T16:51:03.753Z,884.9
2022-10-17T16:52:47.469Z,887.9
2022-10-17T16:54:31.153Z,885.5
2022-10-17T16:56:14.863Z,885.9
2022-10-17T16:57:58.580Z,884.3
2022-10-17T16:59:42.264Z,883.5
2022-10-17T17:01:25.966Z,881
2022-10-17T17:03:09.677Z,875.9
2022-10-17T17:04:53.373Z,873.4
2022-10-17T17:06:37.082Z,873.7
2022-10-17T17:08:20.768Z,871.1
2022-10-17T17:10:04.474Z,869.2
2022-10-17T17:11:48.193Z,865
2022-10-17T17:13:31.893Z,857
2022-10-17T17:15:15.586Z,858
2022-10-17T17:16:59.295Z,858.4
2022-10-17T17:18:42.992Z,855
2022-10-17T17:20:26.700Z,853.9
2022-10-17T17:22:10.398Z,854.8
2022-10-17T17:23:54.104Z,854.3
2022-10-17T17:25:37.805Z,852.2
2022-10-17T17:27:21.513Z,855.5
2022-10-17T17:29:05.213Z,855.4
2022-10-17T17:30:48.913Z,855.7
2022-10-17T17:32:32.610Z,858.2
2022-10-17T17:34:16.322Z,857.1
2022-10-17T17:36:00.019Z,857.5
2022-10-17T17:37:43.720Z,854.2
2022-10-17T17:39:27.425Z,852.2
2022-10-17T17:42:54.860Z,861.6
2022-10-17T17:44:38.523Z,861.2
2022-10-17T17:46:22.236Z,865.5
2022-10-17T17:48:05.944Z,874.4
2022-10-17T17:49:49.637Z,894.6
2022-10-17T17:51:33.342Z,911.6
2022-10-17T17:53:17.051Z,908.4
2022-10-17T17:55:00.740Z,916.1
2022-10-17T17:56:44.451Z,921.6
2022-10-17T17:58:28.145Z,936.1
2022-10-17T18:00:11.855Z,950.6
2022-10-17T18:01:55.558Z,952.7
2022-10-17T18:03:39.260Z,953.9
2022-10-17T18:05:22.971Z,763.6
2022-10-17T18:07:06.664Z,658.6
2022-10-17T18:08:50.369Z,661.6
2022-10-17T18:10:34.068Z,669.5
2022-10-17T18:12:17.776Z,671
2022-10-17T18:14:01.477Z,611.7
2022-10-17T18:15:45.175Z,576.6
2022-10-17T18:17:28.884Z,553.2
2022-10-17T18:19:12.595Z,505.7
2022-10-17T18:20:56.278Z,494.5
2022-10-17T18:22:39.988Z,493.4
2022-10-17T18:24:23.692Z,479
2022-10-17T18:26:07.396Z,458.4
2022-10-17T18:27:51.101Z,457.8
2022-10-17T18:29:34.805Z,460.3
2022-10-17T18:31:18.494Z,462
2022-10-17T18:33:02.214Z,451.5
2022-10-17T18:34:45.898Z,445
2022-10-17T18:36:29.603Z,441
2022-10-17T18:39:57.004Z,576
2022-10-17T18:41:40.719Z,567
2022-10-17T18:43:24.416Z,567.3
2022-10-17T18:45:08.123Z,557.9
2022-10-17T18:46:51.842Z,548.5
2022-10-17T18:48:35.516Z,546.1
2022-10-17T18:50:19.221Z,547
2022-10-17T18:53:46.629Z,545.6
2022-10-17T18:55:30.338Z,545
2022-10-17T18:57:14.036Z,541.7
2022-10-17T18:58:57.735Z,539.8
2022-10-17T19:00:41.441Z,540.4
2022-10-17T19:02:25.135Z,542.1
2022-10-17T19:04:08.846Z,541.7
2022-10-17T19:05:52.537Z,542.5
2022-10-17T19:07:36.250Z,542.9
2022-10-17T19:09:19.958Z,541.2
2022-10-17T19:11:03.653Z,540.9
2022-10-17T19:12:47.366Z,542.5
2022-10-17T19:14:31.066Z,546.8
2022-10-17T19:16:14.756Z,547.5
2022-10-17T19:17:58.463Z,546.9
2022-10-17T19:19:42.163Z,544.3
2022-10-17T19:21:25.869Z,547.5
2022-10-17T19:23:09.575Z,547.1
2022-10-17T19:24:53.271Z,548.6
2022-10-17T19:26:36.986Z,551.4
2022-10-17T19:28:20.677Z,557.8
2022-10-17T19:30:04.375Z,566.8
2022-10-17T19:31:48.101Z,579.3
2022-10-17T19:33:31.775Z,598.4
2022-10-17T19:35:15.506Z,609.1
2022-10-17T19:36:59.199Z,614.8
2022-10-17T19:38:42.896Z,616.2
2022-10-17T19:40:26.598Z,611.7
2022-10-17T19:42:10.289Z,607
2022-10-17T19:43:53.992Z,606.4
2022-10-17T19:45:37.696Z,607.3
2022-10-17T19:47:21.399Z,606.8
2022-10-17T19:49:05.100Z,605.8
2022-10-17T19:50:48.813Z,604.3
2022-10-17T19:52:32.500Z,602.3
2022-10-17T19:54:16.206Z,603.7
2022-10-17T19:55:59.910Z,602.8
2022-10-17T19:57:43.607Z,599.4
2022-10-17T19:59:27.315Z,597.6
2022-10-17T20:01:11.096Z,598.6
2022-10-17T20:02:54.716Z,599.5
2022-10-17T20:04:38.436Z,601.4
2022-10-17T20:06:22.139Z,599.2
2022-10-17T20:08:05.867Z,595.9
2022-10-17T20:09:49.559Z,596
2022-10-17T20:11:33.230Z,595.7
2022-10-17T20:13:16.937Z,601.4
2022-10-17T20:15:00.633Z,607.4
2022-10-17T20:16:44.369Z,615.4
2022-10-17T20:18:28.041Z,622.8
2022-10-17T20:20:11.759Z,636
2022-10-17T20:21:55.452Z,651.2
2022-10-17T20:23:39.140Z,649.9
2022-10-17T20:25:22.851Z,647.7
2022-10-17T20:27:06.556Z,652.5
2022-10-17T20:28:50.250Z,660.6
2022-10-17T20:30:33.956Z,663.7
2022-10-17T20:32:17.706Z,665.5
2022-10-17T20:34:01.370Z,669.5
2022-10-17T20:35:45.067Z,675.5
2022-10-17T20:37:28.756Z,673.2
2022-10-17T20:39:12.474Z,675
2022-10-17T20:40:56.183Z,681
2022-10-17T20:42:39.866Z,682
2022-10-17T20:44:23.606Z,679.4
2022-10-17T20:46:07.294Z,676.4
2022-10-17T20:47:50.986Z,675.2
2022-10-17T20:49:34.698Z,676.1
2022-10-17T20:51:18.398Z,678.7
2022-10-17T20:53:02.094Z,679.8
2022-10-17T20:54:45.790Z,678.2
2022-10-17T20:56:29.504Z,680
2022-10-17T20:58:13.209Z,684.2
2022-10-17T20:59:56.894Z,686.6
2022-10-17T21:01:40.609Z,689
2022-10-17T21:03:24.316Z,692
2022-10-17T21:05:08.002Z,695.6
2022-10-17T21:06:51.762Z,693.9
2022-10-17T21:10:19.118Z,695.6
2022-10-17T21:12:02.822Z,695.8
2022-10-17T21:13:46.524Z,693.7
2022-10-17T21:15:30.224Z,692.3
2022-10-17T21:17:13.936Z,691.8
2022-10-17T21:18:57.649Z,692
2022-10-17T21:20:41.329Z,695.8
2022-10-17T21:22:25.064Z,700.1
2022-10-17T21:24:08.744Z,696.4
2022-10-17T21:25:52.446Z,694.3
2022-10-17T21:27:36.182Z,693
2022-10-17T21:29:19.843Z,693.7
2022-10-17T21:31:03.548Z,698.5
2022-10-17T21:32:47.240Z,694.6
2022-10-17T21:34:30.949Z,698.3
2022-10-17T21:36:14.647Z,700
2022-10-17T21:37:58.353Z,702.3
2022-10-17T21:39:42.054Z,704.7
2022-10-17T21:41:25.751Z,706.6
2022-10-17T21:43:09.467Z,706.5
2022-10-17T21:44:53.168Z,705.7
2022-10-17T21:46:36.862Z,705.2
2022-10-17T21:48:20.605Z,703.4
2022-10-17T21:50:04.279Z,705
2022-10-17T21:51:47.982Z,705.6
2022-10-17T21:53:31.673Z,703.8
2022-10-17T21:55:15.393Z,701.8
2022-10-17T21:56:59.120Z,705.5
2022-10-17T21:58:42.797Z,708.3
2022-10-17T22:00:26.496Z,710.3
2022-10-17T22:02:10.196Z,710.3
2022-10-17T22:03:53.896Z,713.8
2022-10-17T22:05:37.594Z,713.6
2022-10-17T22:07:21.349Z,714.6
2022-10-17T22:09:04.995Z,715.9
2022-10-17T22:10:48.706Z,715.6
2022-10-17T22:14:16.101Z,716.3
2022-10-17T22:15:59.805Z,719.8
2022-10-17T22:17:43.516Z,723.3
2022-10-17T22:19:27.207Z,725.9
2022-10-17T22:21:10.915Z,725.7
2022-10-17T22:22:54.608Z,725
2022-10-17T22:24:38.321Z,725.8
2022-10-17T22:26:22.034Z,726.9
2022-10-17T22:28:05.715Z,725.1
2022-10-17T22:29:49.425Z,729.3